NSZ2891 LEPA-EFHK
Flight info
| Callsign | NSZ2891 |
|---|---|
| Flight time | 4h 6m |
| Altitude | 34000 |
| Route | ISTER DCT NIVDA DCT OMEDA DCT RAPUR DCT TORTU DCT ERTEV DCT BORMI DCT VESAL DCT MOBDO/N0449F350 DCT VERDA DCT NEMAL DCT BAGSI DCT LANUX DCT DESEN DCT POLON DCT BOKSU DCT ROLAV DCT DOLAT DCT GONOS/N0445F360 Q77 IBUZU Q92 INTOR |
| Aircraft | B738/M-SDE2E3FGHIRWXY/LB1 |
Departure
| Time | 2026-04-22 11:44 |
|---|---|
| Airport | Palma de Mallorca Airport (LEPA) |
Arrival
| Time | 2026-04-22 15:50 |
|---|---|
| Airport | Helsinki Vantaa Airport (EFHK) |
| Time | Latitude | Longitude | Altitude | Speed | Heading |
|---|---|---|---|---|---|
| 2026-04-22 11:06 | 39.54893 | 2.73813 | 46 ft | 0 kts | 249° |
| 2026-04-22 11:11 | 39.54893 | 2.73814 | 46 ft | 0 kts | 249° |
| 2026-04-22 11:35 | 39.54895 | 2.73823 | 46 ft | 2 kts | 249° |
| 2026-04-22 11:35 | 39.54901 | 2.73841 | 47 ft | 2 kts | 249° |
| 2026-04-22 11:35 | 39.54906 | 2.73859 | 49 ft | 2 kts | 249° |
| 2026-04-22 11:36 | 39.54911 | 2.73877 | 49 ft | 2 kts | 249° |
| 2026-04-22 11:36 | 39.54917 | 2.73895 | 48 ft | 2 kts | 249° |
| 2026-04-22 11:36 | 39.54920 | 2.73914 | 47 ft | 2 kts | 275° |
| 2026-04-22 11:36 | 39.54916 | 2.73933 | 46 ft | 2 kts | 296° |
| 2026-04-22 11:37 | 39.54908 | 2.73949 | 45 ft | 2 kts | 317° |
| 2026-04-22 11:37 | 39.54895 | 2.73960 | 45 ft | 2 kts | 333° |
| 2026-04-22 11:37 | 39.54882 | 2.73969 | 45 ft | 2 kts | 327° |
| 2026-04-22 11:37 | 39.54870 | 2.73980 | 45 ft | 2 kts | 329° |
| 2026-04-22 11:38 | 39.54863 | 2.73985 | 45 ft | 0 kts | 328° |
| 2026-04-22 11:39 | 39.54874 | 2.73977 | 45 ft | 7 kts | 328° |
| 2026-04-22 11:39 | 39.54951 | 2.73997 | 46 ft | 13 kts | 28° |
| 2026-04-22 11:39 | 39.55032 | 2.73961 | 46 ft | 14 kts | 328° |
| 2026-04-22 11:40 | 39.55159 | 2.73859 | 46 ft | 27 kts | 329° |
| 2026-04-22 11:40 | 39.55331 | 2.73725 | 46 ft | 28 kts | 329° |
| 2026-04-22 11:40 | 39.55495 | 2.73595 | 47 ft | 26 kts | 328° |
| 2026-04-22 11:40 | 39.55632 | 2.73496 | 47 ft | 14 kts | 2° |
| 2026-04-22 11:41 | 39.55693 | 2.73585 | 47 ft | 16 kts | 59° |
| 2026-04-22 11:41 | 39.55778 | 2.73766 | 47 ft | 26 kts | 59° |
| 2026-04-22 11:41 | 39.55872 | 2.73964 | 48 ft | 24 kts | 59° |
| 2026-04-22 11:41 | 39.55959 | 2.74149 | 48 ft | 23 kts | 59° |
| 2026-04-22 11:42 | 39.56043 | 2.74325 | 48 ft | 22 kts | 59° |
| 2026-04-22 11:42 | 39.56137 | 2.74451 | 48 ft | 17 kts | 0° |
| 2026-04-22 11:42 | 39.56238 | 2.74375 | 49 ft | 15 kts | 305° |
| 2026-04-22 11:42 | 39.56230 | 2.74275 | 48 ft | 0 kts | 239° |
| 2026-04-22 11:43 | 39.56218 | 2.74248 | 48 ft | 20 kts | 239° |
| 2026-04-22 11:43 | 39.56005 | 2.73800 | 48 ft | 94 kts | 239° |
| 2026-04-22 11:43 | 39.55549 | 2.72833 | 46 ft | 157 kts | 238° |
| 2026-04-22 11:43 | 39.54915 | 2.71448 | 263 ft | 191 kts | 239° |
| 2026-04-22 11:44 | 39.54278 | 2.70006 | 1217 ft | 185 kts | 239° |
| 2026-04-22 11:44 | 39.53580 | 2.68602 | 1898 ft | 192 kts | 237° |
| 2026-04-22 11:44 | 39.52816 | 2.67108 | 2393 ft | 204 kts | 237° |
| 2026-04-22 11:44 | 39.52036 | 2.65527 | 2923 ft | 214 kts | 239° |
| 2026-04-22 11:45 | 39.51243 | 2.63887 | 3582 ft | 218 kts | 239° |
| 2026-04-22 11:45 | 39.50437 | 2.62207 | 4250 ft | 222 kts | 239° |
| 2026-04-22 11:45 | 39.49554 | 2.60565 | 4777 ft | 232 kts | 226° |
| 2026-04-22 11:45 | 39.48174 | 2.59318 | 5180 ft | 251 kts | 209° |
| 2026-04-22 11:46 | 39.46518 | 2.58391 | 5672 ft | 267 kts | 199° |
| 2026-04-22 11:46 | 39.44673 | 2.57934 | 6210 ft | 280 kts | 185° |
| 2026-04-22 11:46 | 39.42683 | 2.58013 | 6858 ft | 289 kts | 174° |
| 2026-04-22 11:46 | 39.40716 | 2.58546 | 7571 ft | 293 kts | 163° |
| 2026-04-22 11:47 | 39.38862 | 2.59696 | 8235 ft | 298 kts | 144° |
| 2026-04-22 11:47 | 39.37273 | 2.61398 | 8926 ft | 301 kts | 137° |
| 2026-04-22 11:47 | 39.35749 | 2.63270 | 9580 ft | 305 kts | 135° |
| 2026-04-22 11:47 | 39.34231 | 2.65204 | 10261 ft | 309 kts | 135° |
| 2026-04-22 11:48 | 39.32662 | 2.67197 | 10647 ft | 323 kts | 135° |
| 2026-04-22 11:48 | 39.31015 | 2.69263 | 10971 ft | 338 kts | 136° |
| 2026-04-22 11:48 | 39.29290 | 2.71405 | 11329 ft | 352 kts | 136° |
| 2026-04-22 11:48 | 39.27516 | 2.73680 | 11606 ft | 368 kts | 130° |
| 2026-04-22 11:49 | 39.26183 | 2.76554 | 11853 ft | 382 kts | 109° |
| 2026-04-22 11:49 | 39.25697 | 2.79907 | 12228 ft | 389 kts | 90° |
| 2026-04-22 11:49 | 39.25695 | 2.83406 | 12782 ft | 394 kts | 87° |
| 2026-04-22 11:49 | 39.26008 | 2.86943 | 13409 ft | 395 kts | 74° |
| 2026-04-22 11:50 | 39.26940 | 2.90212 | 14022 ft | 395 kts | 62° |
| 2026-04-22 11:50 | 39.28233 | 2.93361 | 14563 ft | 399 kts | 58° |
| 2026-04-22 11:50 | 39.29643 | 2.96460 | 15121 ft | 404 kts | 57° |
| 2026-04-22 11:50 | 39.31107 | 2.99589 | 15684 ft | 409 kts | 57° |
| 2026-04-22 11:51 | 39.32570 | 3.02733 | 16228 ft | 413 kts | 57° |
| 2026-04-22 11:51 | 39.34034 | 3.05935 | 16773 ft | 417 kts | 58° |
| 2026-04-22 11:51 | 39.35491 | 3.09173 | 17234 ft | 424 kts | 58° |
| 2026-04-22 11:51 | 39.36966 | 3.12491 | 17778 ft | 427 kts | 58° |
| 2026-04-22 11:52 | 39.38442 | 3.15833 | 18288 ft | 432 kts | 58° |
| 2026-04-22 11:52 | 39.39930 | 3.19212 | 18904 ft | 433 kts | 58° |
| 2026-04-22 11:52 | 39.41421 | 3.22602 | 19399 ft | 438 kts | 58° |
| 2026-04-22 11:52 | 39.42927 | 3.26018 | 19914 ft | 441 kts | 58° |
| 2026-04-22 11:53 | 39.44465 | 3.29451 | 20470 ft | 443 kts | 57° |
| 2026-04-22 11:53 | 39.46055 | 3.32928 | 20920 ft | 448 kts | 57° |
| 2026-04-22 11:53 | 39.47651 | 3.36388 | 21414 ft | 451 kts | 57° |
| 2026-04-22 11:53 | 39.49258 | 3.39863 | 21888 ft | 454 kts | 57° |
| 2026-04-22 11:54 | 39.50874 | 3.43357 | 22321 ft | 458 kts | 57° |
| 2026-04-22 11:54 | 39.52501 | 3.46884 | 22778 ft | 461 kts | 57° |
| 2026-04-22 11:54 | 39.54161 | 3.50492 | 23232 ft | 465 kts | 57° |
| 2026-04-22 11:54 | 39.55820 | 3.54104 | 23618 ft | 469 kts | 57° |
| 2026-04-22 11:55 | 39.57480 | 3.57725 | 24085 ft | 472 kts | 57° |
| 2026-04-22 11:55 | 39.59155 | 3.61387 | 24562 ft | 474 kts | 57° |
| 2026-04-22 11:55 | 39.60836 | 3.65069 | 24976 ft | 478 kts | 57° |
| 2026-04-22 11:55 | 39.62526 | 3.68776 | 25458 ft | 479 kts | 57° |
| 2026-04-22 11:56 | 39.64219 | 3.72497 | 25854 ft | 482 kts | 57° |
| 2026-04-22 11:56 | 39.65927 | 3.76256 | 26262 ft | 485 kts | 57° |
| 2026-04-22 11:56 | 39.67644 | 3.80038 | 26676 ft | 487 kts | 58° |
| 2026-04-22 11:56 | 39.69347 | 3.83796 | 27100 ft | 489 kts | 58° |
| 2026-04-22 11:57 | 39.71062 | 3.87584 | 27747 ft | 485 kts | 58° |
| 2026-04-22 11:57 | 39.72762 | 3.91345 | 28413 ft | 481 kts | 57° |
| 2026-04-22 11:57 | 39.74437 | 3.95057 | 28946 ft | 479 kts | 58° |
| 2026-04-22 11:57 | 39.76128 | 3.98806 | 29430 ft | 478 kts | 58° |
| 2026-04-22 11:58 | 39.77790 | 4.02494 | 29871 ft | 478 kts | 57° |
| 2026-04-22 11:58 | 39.79475 | 4.06236 | 30333 ft | 477 kts | 58° |
| 2026-04-22 11:58 | 39.81134 | 4.09927 | 30766 ft | 476 kts | 57° |
| 2026-04-22 11:58 | 39.82792 | 4.13619 | 31139 ft | 476 kts | 57° |
| 2026-04-22 11:59 | 39.84470 | 4.17362 | 31514 ft | 476 kts | 57° |
| 2026-04-22 11:59 | 39.86136 | 4.21081 | 31864 ft | 476 kts | 57° |
| 2026-04-22 11:59 | 39.87794 | 4.24783 | 32257 ft | 475 kts | 57° |
| 2026-04-22 11:59 | 39.89475 | 4.28531 | 32608 ft | 475 kts | 57° |
| 2026-04-22 12:00 | 39.91133 | 4.32227 | 32932 ft | 475 kts | 57° |
| 2026-04-22 12:00 | 39.92798 | 4.35940 | 33303 ft | 473 kts | 57° |
| 2026-04-22 12:00 | 39.94457 | 4.39649 | 33649 ft | 473 kts | 57° |
| 2026-04-22 12:00 | 39.96126 | 4.43381 | 33876 ft | 475 kts | 57° |
| 2026-04-22 12:01 | 39.97778 | 4.47080 | 33996 ft | 476 kts | 57° |
| 2026-04-22 12:01 | 39.99459 | 4.50851 | 33995 ft | 474 kts | 57° |
| 2026-04-22 12:01 | 40.02777 | 4.58313 | 33992 ft | 472 kts | 57° |
| 2026-04-22 12:02 | 40.06165 | 4.65735 | 33996 ft | 472 kts | 54° |
| 2026-04-22 12:02 | 40.10102 | 4.72659 | 34004 ft | 472 kts | 49° |
| 2026-04-22 12:03 | 40.14296 | 4.79235 | 34010 ft | 470 kts | 47° |
| 2026-04-22 12:03 | 40.18545 | 4.85772 | 34016 ft | 471 kts | 47° |
| 2026-04-22 12:04 | 40.22781 | 4.92345 | 34012 ft | 472 kts | 47° |
| 2026-04-22 12:04 | 40.26999 | 4.98954 | 34013 ft | 473 kts | 47° |
| 2026-04-22 12:05 | 40.31207 | 5.05596 | 34016 ft | 472 kts | 47° |
| 2026-04-22 12:05 | 40.35394 | 5.12232 | 34019 ft | 473 kts | 48° |
| 2026-04-22 12:06 | 40.39571 | 5.18874 | 34015 ft | 473 kts | 47° |
| 2026-04-22 12:06 | 40.43771 | 5.25564 | 34018 ft | 473 kts | 48° |
| 2026-04-22 12:07 | 40.47937 | 5.32214 | 34014 ft | 472 kts | 48° |
| 2026-04-22 12:07 | 40.52090 | 5.38860 | 34004 ft | 471 kts | 48° |
| 2026-04-22 12:08 | 40.56230 | 5.45501 | 33998 ft | 471 kts | 47° |
| 2026-04-22 12:08 | 40.60382 | 5.52173 | 34001 ft | 471 kts | 47° |
| 2026-04-22 12:09 | 40.64512 | 5.58824 | 34002 ft | 471 kts | 47° |
| 2026-04-22 12:09 | 40.68676 | 5.65544 | 34000 ft | 472 kts | 48° |
| 2026-04-22 12:10 | 40.72829 | 5.72262 | 34005 ft | 472 kts | 48° |
| 2026-04-22 12:10 | 40.76952 | 5.78944 | 34004 ft | 471 kts | 48° |
| 2026-04-22 12:11 | 40.81105 | 5.85691 | 34005 ft | 473 kts | 48° |
| 2026-04-22 12:11 | 40.85229 | 5.92405 | 34004 ft | 473 kts | 48° |
| 2026-04-22 12:12 | 40.89359 | 5.99146 | 34006 ft | 472 kts | 48° |
| 2026-04-22 12:12 | 40.93492 | 6.05906 | 34008 ft | 471 kts | 48° |
| 2026-04-22 12:13 | 40.97597 | 6.12634 | 34007 ft | 472 kts | 48° |
| 2026-04-22 12:13 | 41.01696 | 6.19367 | 34011 ft | 472 kts | 47° |
| 2026-04-22 12:14 | 41.05840 | 6.26187 | 34008 ft | 473 kts | 47° |
| 2026-04-22 12:14 | 41.09955 | 6.32976 | 34011 ft | 473 kts | 47° |
| 2026-04-22 12:15 | 41.14065 | 6.39771 | 34013 ft | 471 kts | 47° |
| 2026-04-22 12:15 | 41.18144 | 6.46530 | 34012 ft | 471 kts | 47° |
| 2026-04-22 12:16 | 41.22261 | 6.53365 | 34013 ft | 471 kts | 47° |
| 2026-04-22 12:16 | 41.26334 | 6.60109 | 34012 ft | 470 kts | 46° |
| 2026-04-22 12:17 | 41.30494 | 6.66821 | 34016 ft | 468 kts | 46° |
| 2026-04-22 12:17 | 41.34659 | 6.73487 | 34015 ft | 470 kts | 47° |
| 2026-04-22 12:18 | 41.38818 | 6.80167 | 34015 ft | 468 kts | 46° |
| 2026-04-22 12:18 | 41.42957 | 6.86847 | 34018 ft | 468 kts | 46° |
| 2026-04-22 12:19 | 41.47126 | 6.93601 | 34018 ft | 468 kts | 46° |
| 2026-04-22 12:19 | 41.51235 | 7.00277 | 34018 ft | 469 kts | 46° |
| 2026-04-22 12:20 | 41.55363 | 7.06996 | 34017 ft | 470 kts | 46° |
| 2026-04-22 12:20 | 41.59513 | 7.13772 | 34021 ft | 468 kts | 46° |
| 2026-04-22 12:21 | 41.63642 | 7.20527 | 34022 ft | 468 kts | 46° |
| 2026-04-22 12:21 | 41.67752 | 7.27268 | 34023 ft | 467 kts | 46° |
| 2026-04-22 12:22 | 41.71847 | 7.33996 | 34022 ft | 468 kts | 46° |
| 2026-04-22 12:22 | 41.75940 | 7.40739 | 34022 ft | 468 kts | 46° |
| 2026-04-22 12:23 | 41.80042 | 7.47510 | 34024 ft | 467 kts | 46° |
| 2026-04-22 12:23 | 41.84132 | 7.54277 | 34024 ft | 466 kts | 46° |
| 2026-04-22 12:24 | 41.88212 | 7.61044 | 34025 ft | 468 kts | 46° |
| 2026-04-22 12:24 | 41.92298 | 7.67832 | 34027 ft | 466 kts | 47° |
| 2026-04-22 12:25 | 41.96368 | 7.74612 | 34028 ft | 468 kts | 47° |
| 2026-04-22 12:25 | 42.00475 | 7.81467 | 34028 ft | 469 kts | 47° |
| 2026-04-22 12:26 | 42.04554 | 7.88292 | 34030 ft | 470 kts | 47° |
| 2026-04-22 12:26 | 42.08630 | 7.95129 | 34031 ft | 470 kts | 46° |
| 2026-04-22 12:27 | 42.12725 | 8.02015 | 34033 ft | 469 kts | 46° |
| 2026-04-22 12:27 | 42.16808 | 8.08894 | 34030 ft | 468 kts | 46° |
| 2026-04-22 12:28 | 42.20877 | 8.15768 | 34029 ft | 468 kts | 46° |
| 2026-04-22 12:28 | 42.24926 | 8.22624 | 34030 ft | 469 kts | 46° |
| 2026-04-22 12:29 | 42.29002 | 8.29535 | 34033 ft | 470 kts | 46° |
| 2026-04-22 12:29 | 42.33423 | 8.35825 | 34029 ft | 457 kts | 31° |
| 2026-04-22 12:30 | 42.38911 | 8.39868 | 34034 ft | 445 kts | 17° |
| 2026-04-22 12:30 | 42.41775 | 8.41482 | 34038 ft | 443 kts | 15° |
| 2026-04-22 12:31 | 42.47504 | 8.44516 | 34035 ft | 443 kts | 15° |
| 2026-04-22 12:31 | 42.53287 | 8.47591 | 34046 ft | 443 kts | 15° |
| 2026-04-22 12:32 | 42.58961 | 8.50685 | 34044 ft | 441 kts | 15° |
| 2026-04-22 12:32 | 42.67521 | 8.55429 | 34049 ft | 442 kts | 15° |
| 2026-04-22 12:33 | 42.73168 | 8.58589 | 34051 ft | 441 kts | 15° |
| 2026-04-22 12:33 | 42.78847 | 8.61773 | 34057 ft | 441 kts | 15° |
| 2026-04-22 12:34 | 42.84546 | 8.64979 | 34065 ft | 440 kts | 15° |
| 2026-04-22 12:34 | 42.90216 | 8.68171 | 34061 ft | 440 kts | 16° |
| 2026-04-22 12:35 | 42.95845 | 8.71349 | 34068 ft | 439 kts | 16° |
| 2026-04-22 12:35 | 43.01505 | 8.74546 | 34068 ft | 440 kts | 16° |
| 2026-04-22 12:36 | 43.07117 | 8.77729 | 34069 ft | 438 kts | 16° |
| 2026-04-22 12:36 | 43.12766 | 8.80935 | 34073 ft | 437 kts | 15° |
| 2026-04-22 12:37 | 43.18443 | 8.84163 | 34075 ft | 438 kts | 15° |
| 2026-04-22 12:37 | 43.24048 | 8.87360 | 34075 ft | 436 kts | 15° |
| 2026-04-22 12:38 | 43.29654 | 8.90560 | 34078 ft | 436 kts | 15° |
| 2026-04-22 12:38 | 43.35272 | 8.93711 | 34078 ft | 434 kts | 13° |
| 2026-04-22 12:39 | 43.43904 | 8.96004 | 34082 ft | 416 kts | 355° |
| 2026-04-22 12:40 | 43.49686 | 8.96054 | 34081 ft | 414 kts | 353° |
| 2026-04-22 12:40 | 43.55436 | 8.95950 | 34082 ft | 412 kts | 353° |
| 2026-04-22 12:41 | 43.61153 | 8.96058 | 34080 ft | 415 kts | 359° |
| 2026-04-22 12:41 | 43.64021 | 8.96837 | 34084 ft | 426 kts | 10° |
| 2026-04-22 12:41 | 43.66784 | 8.98421 | 34088 ft | 438 kts | 19° |
| 2026-04-22 12:42 | 43.72118 | 9.02787 | 34082 ft | 445 kts | 24° |
| 2026-04-22 12:42 | 43.77290 | 9.07426 | 34082 ft | 444 kts | 25° |
| 2026-04-22 12:43 | 43.82478 | 9.12098 | 34085 ft | 446 kts | 24° |
| 2026-04-22 12:43 | 43.87708 | 9.16780 | 34084 ft | 441 kts | 24° |
| 2026-04-22 12:44 | 43.92894 | 9.21399 | 34086 ft | 445 kts | 24° |
| 2026-04-22 12:44 | 43.98077 | 9.26009 | 34083 ft | 441 kts | 24° |
| 2026-04-22 12:45 | 44.03254 | 9.30619 | 34083 ft | 441 kts | 23° |
| 2026-04-22 12:45 | 44.08412 | 9.35216 | 34085 ft | 440 kts | 23° |
| 2026-04-22 12:46 | 44.13586 | 9.39839 | 34090 ft | 440 kts | 23° |
| 2026-04-22 12:46 | 44.18740 | 9.44447 | 34092 ft | 439 kts | 23° |
| 2026-04-22 12:47 | 44.23848 | 9.49025 | 34105 ft | 440 kts | 22° |
| 2026-04-22 12:47 | 44.29002 | 9.53657 | 34099 ft | 434 kts | 22° |
| 2026-04-22 12:48 | 44.34085 | 9.58237 | 34102 ft | 438 kts | 22° |
| 2026-04-22 12:48 | 44.39193 | 9.62847 | 34105 ft | 435 kts | 22° |
| 2026-04-22 12:49 | 44.44253 | 9.67429 | 34101 ft | 433 kts | 22° |
| 2026-04-22 12:49 | 44.49352 | 9.72042 | 34096 ft | 436 kts | 22° |
| 2026-04-22 12:50 | 44.54412 | 9.76639 | 34109 ft | 432 kts | 22° |
| 2026-04-22 12:50 | 44.59444 | 9.81223 | 34109 ft | 431 kts | 22° |
| 2026-04-22 12:51 | 44.64475 | 9.85812 | 34121 ft | 428 kts | 21° |
| 2026-04-22 12:51 | 44.69479 | 9.90374 | 34124 ft | 433 kts | 22° |
| 2026-04-22 12:52 | 44.74473 | 9.94954 | 34132 ft | 427 kts | 21° |
| 2026-04-22 12:52 | 44.79494 | 9.99553 | 34142 ft | 430 kts | 21° |
| 2026-04-22 12:53 | 44.84428 | 10.04104 | 34152 ft | 426 kts | 21° |
| 2026-04-22 12:53 | 44.89407 | 10.08681 | 34150 ft | 422 kts | 21° |
| 2026-04-22 12:54 | 44.94304 | 10.13213 | 34150 ft | 420 kts | 21° |
| 2026-04-22 12:54 | 44.99231 | 10.17766 | 34148 ft | 422 kts | 21° |
| 2026-04-22 12:55 | 45.04120 | 10.22290 | 34150 ft | 423 kts | 21° |
| 2026-04-22 12:55 | 45.09011 | 10.26840 | 34143 ft | 418 kts | 21° |
| 2026-04-22 12:56 | 45.13899 | 10.31389 | 34151 ft | 423 kts | 21° |
| 2026-04-22 12:56 | 45.18837 | 10.35991 | 34143 ft | 423 kts | 21° |
| 2026-04-22 12:57 | 45.23747 | 10.40587 | 34147 ft | 419 kts | 21° |
| 2026-04-22 12:57 | 45.28636 | 10.45174 | 34145 ft | 421 kts | 21° |
| 2026-04-22 12:58 | 45.33519 | 10.49752 | 34146 ft | 419 kts | 22° |
| 2026-04-22 12:58 | 45.38405 | 10.54340 | 34147 ft | 424 kts | 22° |
| 2026-04-22 12:59 | 45.43289 | 10.58950 | 34148 ft | 422 kts | 22° |
| 2026-04-22 12:59 | 45.48189 | 10.63578 | 34142 ft | 423 kts | 22° |
| 2026-04-22 13:00 | 45.53111 | 10.68231 | 34146 ft | 426 kts | 23° |
| 2026-04-22 13:00 | 45.58030 | 10.72901 | 34136 ft | 425 kts | 24° |
| 2026-04-22 13:01 | 45.62929 | 10.77562 | 34134 ft | 424 kts | 24° |
| 2026-04-22 13:01 | 45.67853 | 10.82253 | 34139 ft | 427 kts | 24° |
| 2026-04-22 13:02 | 45.72789 | 10.86969 | 34130 ft | 424 kts | 25° |
| 2026-04-22 13:02 | 45.77724 | 10.91690 | 34130 ft | 426 kts | 25° |
| 2026-04-22 13:03 | 45.82662 | 10.96426 | 34123 ft | 427 kts | 25° |
| 2026-04-22 13:03 | 45.87596 | 11.01173 | 34118 ft | 427 kts | 25° |
| 2026-04-22 13:04 | 45.92540 | 11.05928 | 34110 ft | 431 kts | 26° |
| 2026-04-22 13:04 | 45.97499 | 11.10720 | 34110 ft | 429 kts | 26° |
| 2026-04-22 13:05 | 46.02398 | 11.15658 | 34125 ft | 433 kts | 30° |
| 2026-04-22 13:05 | 46.06921 | 11.21562 | 34130 ft | 440 kts | 37° |
| 2026-04-22 13:06 | 46.11132 | 11.27961 | 34130 ft | 444 kts | 39° |
| 2026-04-22 13:06 | 46.15315 | 11.34530 | 34113 ft | 441 kts | 40° |
| 2026-04-22 13:07 | 46.19464 | 11.41043 | 34097 ft | 442 kts | 39° |
| 2026-04-22 13:07 | 46.23636 | 11.47574 | 34096 ft | 439 kts | 39° |
| 2026-04-22 13:08 | 46.27774 | 11.54037 | 34081 ft | 439 kts | 39° |
| 2026-04-22 13:08 | 46.31938 | 11.60538 | 34101 ft | 440 kts | 39° |
| 2026-04-22 13:09 | 46.36083 | 11.67052 | 34099 ft | 441 kts | 41° |
| 2026-04-22 13:09 | 46.39810 | 11.74132 | 34082 ft | 448 kts | 51° |
| 2026-04-22 13:10 | 46.42973 | 11.82004 | 34115 ft | 454 kts | 53° |
| 2026-04-22 13:10 | 46.44628 | 11.85831 | 34272 ft | 450 kts | 48° |
| 2026-04-22 13:10 | 46.46538 | 11.89404 | 34571 ft | 442 kts | 42° |
| 2026-04-22 13:10 | 46.48637 | 11.92564 | 34859 ft | 435 kts | 36° |
| 2026-04-22 13:11 | 46.50950 | 11.95374 | 35108 ft | 429 kts | 31° |
| 2026-04-22 13:11 | 46.53330 | 11.97903 | 35334 ft | 427 kts | 30° |
| 2026-04-22 13:11 | 46.55728 | 12.00417 | 35541 ft | 427 kts | 31° |
| 2026-04-22 13:11 | 46.58107 | 12.03025 | 35771 ft | 427 kts | 32° |
| 2026-04-22 13:12 | 46.60425 | 12.05723 | 35953 ft | 428 kts | 34° |
| 2026-04-22 13:12 | 46.62713 | 12.08537 | 36169 ft | 428 kts | 36° |
| 2026-04-22 13:12 | 46.64927 | 12.11373 | 36423 ft | 426 kts | 37° |
| 2026-04-22 13:12 | 46.67156 | 12.14298 | 36524 ft | 429 kts | 37° |
| 2026-04-22 13:13 | 46.69360 | 12.17237 | 36588 ft | 432 kts | 38° |
| 2026-04-22 13:13 | 46.73788 | 12.23207 | 36814 ft | 435 kts | 38° |
| 2026-04-22 13:13 | 46.75983 | 12.26185 | 36942 ft | 435 kts | 38° |
| 2026-04-22 13:14 | 46.78204 | 12.29203 | 37100 ft | 435 kts | 38° |
| 2026-04-22 13:14 | 46.82660 | 12.35268 | 37174 ft | 435 kts | 38° |
| 2026-04-22 13:15 | 46.87035 | 12.41237 | 37173 ft | 432 kts | 38° |
| 2026-04-22 13:15 | 46.91429 | 12.47237 | 37186 ft | 433 kts | 38° |
| 2026-04-22 13:16 | 46.95844 | 12.53281 | 37199 ft | 433 kts | 38° |
| 2026-04-22 13:16 | 47.00203 | 12.59262 | 37169 ft | 433 kts | 39° |
| 2026-04-22 13:17 | 47.04579 | 12.65279 | 37126 ft | 432 kts | 39° |
| 2026-04-22 13:17 | 47.08983 | 12.71349 | 37103 ft | 433 kts | 39° |
| 2026-04-22 13:18 | 47.13344 | 12.77374 | 37109 ft | 433 kts | 39° |
| 2026-04-22 13:18 | 47.17735 | 12.83456 | 37134 ft | 432 kts | 39° |
| 2026-04-22 13:19 | 47.22113 | 12.89533 | 37157 ft | 433 kts | 40° |
| 2026-04-22 13:19 | 47.26485 | 12.95618 | 37176 ft | 432 kts | 40° |
| 2026-04-22 13:20 | 47.30862 | 13.01724 | 37174 ft | 432 kts | 40° |
| 2026-04-22 13:20 | 47.35210 | 13.07804 | 37153 ft | 431 kts | 40° |
| 2026-04-22 13:21 | 47.39526 | 13.13852 | 37139 ft | 431 kts | 40° |
| 2026-04-22 13:21 | 47.43883 | 13.19973 | 37119 ft | 431 kts | 40° |
| 2026-04-22 13:22 | 47.48235 | 13.26100 | 37094 ft | 431 kts | 40° |
| 2026-04-22 13:22 | 47.52549 | 13.32191 | 37109 ft | 431 kts | 41° |
| 2026-04-22 13:23 | 47.56629 | 13.38779 | 37145 ft | 434 kts | 46° |
| 2026-04-22 13:23 | 47.60436 | 13.45694 | 37162 ft | 433 kts | 47° |
| 2026-04-22 13:24 | 47.64196 | 13.52637 | 37174 ft | 433 kts | 47° |
| 2026-04-22 13:24 | 47.67974 | 13.59571 | 37182 ft | 434 kts | 47° |
| 2026-04-22 13:25 | 47.71757 | 13.66477 | 37183 ft | 432 kts | 47° |
| 2026-04-22 13:25 | 47.75561 | 13.73408 | 37189 ft | 432 kts | 48° |
| 2026-04-22 13:26 | 47.79348 | 13.80307 | 37187 ft | 433 kts | 47° |
| 2026-04-22 13:26 | 47.83143 | 13.87237 | 37195 ft | 433 kts | 47° |
| 2026-04-22 13:27 | 47.86935 | 13.94175 | 37199 ft | 433 kts | 48° |
| 2026-04-22 13:27 | 47.90736 | 14.01150 | 37202 ft | 432 kts | 48° |
| 2026-04-22 13:28 | 47.94508 | 14.08086 | 37212 ft | 433 kts | 48° |
| 2026-04-22 13:28 | 47.98299 | 14.15079 | 37219 ft | 431 kts | 48° |
| 2026-04-22 13:29 | 48.02063 | 14.22041 | 37225 ft | 431 kts | 48° |
| 2026-04-22 13:29 | 48.05835 | 14.29030 | 37228 ft | 431 kts | 47° |
| 2026-04-22 13:30 | 48.09833 | 14.35714 | 37229 ft | 430 kts | 43° |
| 2026-04-22 13:30 | 48.13932 | 14.41978 | 37224 ft | 429 kts | 43° |
| 2026-04-22 13:31 | 48.18121 | 14.48367 | 37227 ft | 429 kts | 43° |
| 2026-04-22 13:31 | 48.22275 | 14.54798 | 37220 ft | 429 kts | 44° |
| 2026-04-22 13:32 | 48.26378 | 14.61221 | 37220 ft | 428 kts | 44° |
| 2026-04-22 13:32 | 48.30506 | 14.67726 | 37218 ft | 428 kts | 44° |
| 2026-04-22 13:33 | 48.34585 | 14.74178 | 37204 ft | 428 kts | 45° |
| 2026-04-22 13:33 | 48.38685 | 14.80681 | 37199 ft | 428 kts | 45° |
| 2026-04-22 13:34 | 48.42755 | 14.87154 | 37193 ft | 428 kts | 45° |
| 2026-04-22 13:34 | 48.46852 | 14.93686 | 37196 ft | 427 kts | 45° |
| 2026-04-22 13:35 | 48.50927 | 15.00199 | 37185 ft | 427 kts | 45° |
| 2026-04-22 13:35 | 48.54955 | 15.06654 | 37187 ft | 426 kts | 45° |
| 2026-04-22 13:36 | 48.59007 | 15.13161 | 37188 ft | 425 kts | 45° |
| 2026-04-22 13:36 | 48.63055 | 15.19680 | 37193 ft | 427 kts | 45° |
| 2026-04-22 13:37 | 48.67106 | 15.26219 | 37198 ft | 427 kts | 45° |
| 2026-04-22 13:37 | 48.71169 | 15.32796 | 37199 ft | 426 kts | 45° |
| 2026-04-22 13:38 | 48.75204 | 15.39341 | 37195 ft | 425 kts | 45° |
| 2026-04-22 13:38 | 48.81241 | 15.49169 | 37194 ft | 425 kts | 45° |
| 2026-04-22 13:39 | 48.85267 | 15.55742 | 37204 ft | 425 kts | 45° |
| 2026-04-22 13:39 | 48.89345 | 15.62283 | 37203 ft | 425 kts | 43° |
| 2026-04-22 13:40 | 48.93665 | 15.68269 | 37208 ft | 424 kts | 40° |
| 2026-04-22 13:40 | 48.98103 | 15.74068 | 37204 ft | 423 kts | 40° |
| 2026-04-22 13:41 | 49.02599 | 15.79945 | 37208 ft | 423 kts | 40° |
| 2026-04-22 13:41 | 49.07033 | 15.85806 | 37209 ft | 423 kts | 40° |
| 2026-04-22 13:42 | 49.11491 | 15.91746 | 37210 ft | 424 kts | 40° |
| 2026-04-22 13:42 | 49.15909 | 15.97664 | 37209 ft | 423 kts | 41° |
| 2026-04-22 13:43 | 49.20332 | 16.03608 | 37213 ft | 422 kts | 41° |
| 2026-04-22 13:43 | 49.24732 | 16.09539 | 37213 ft | 422 kts | 41° |
| 2026-04-22 13:44 | 49.29170 | 16.15536 | 37207 ft | 421 kts | 41° |
| 2026-04-22 13:44 | 49.33584 | 16.21514 | 37206 ft | 421 kts | 41° |
| 2026-04-22 13:45 | 49.37947 | 16.27439 | 37194 ft | 421 kts | 41° |
| 2026-04-22 13:45 | 49.42352 | 16.33434 | 37190 ft | 421 kts | 41° |
| 2026-04-22 13:46 | 49.46758 | 16.39448 | 37184 ft | 420 kts | 41° |
| 2026-04-22 13:46 | 49.51086 | 16.45369 | 37179 ft | 421 kts | 41° |
| 2026-04-22 13:47 | 49.55459 | 16.51366 | 37183 ft | 420 kts | 41° |
| 2026-04-22 13:47 | 49.59836 | 16.57384 | 37180 ft | 419 kts | 41° |
| 2026-04-22 13:48 | 49.64190 | 16.63385 | 37188 ft | 419 kts | 41° |
| 2026-04-22 13:48 | 49.68524 | 16.69374 | 37188 ft | 420 kts | 42° |
| 2026-04-22 13:49 | 49.72865 | 16.75386 | 37189 ft | 419 kts | 42° |
| 2026-04-22 13:49 | 49.77197 | 16.81402 | 37186 ft | 418 kts | 42° |
| 2026-04-22 13:50 | 49.81530 | 16.87435 | 37188 ft | 418 kts | 42° |
| 2026-04-22 13:50 | 49.85825 | 16.93428 | 37190 ft | 417 kts | 42° |
| 2026-04-22 13:51 | 49.90149 | 16.99479 | 37187 ft | 418 kts | 42° |
| 2026-04-22 13:51 | 49.94496 | 17.05577 | 37185 ft | 418 kts | 42° |
| 2026-04-22 13:52 | 49.98790 | 17.11616 | 37176 ft | 417 kts | 42° |
| 2026-04-22 13:52 | 50.03075 | 17.17656 | 37168 ft | 417 kts | 42° |
| 2026-04-22 13:53 | 50.07379 | 17.23739 | 37157 ft | 416 kts | 43° |
| 2026-04-22 13:53 | 50.11640 | 17.29777 | 37155 ft | 416 kts | 43° |
| 2026-04-22 13:54 | 50.15921 | 17.35858 | 37168 ft | 416 kts | 43° |
| 2026-04-22 13:54 | 50.20184 | 17.41927 | 37173 ft | 416 kts | 43° |
| 2026-04-22 13:55 | 50.24484 | 17.48065 | 37180 ft | 415 kts | 43° |
| 2026-04-22 13:55 | 50.28757 | 17.54129 | 37189 ft | 416 kts | 41° |
| 2026-04-22 13:56 | 50.33117 | 17.60000 | 37189 ft | 415 kts | 40° |
| 2026-04-22 13:56 | 50.37529 | 17.65858 | 37190 ft | 415 kts | 41° |
| 2026-04-22 13:57 | 50.41919 | 17.71717 | 37191 ft | 414 kts | 41° |
| 2026-04-22 13:57 | 50.46278 | 17.77578 | 37191 ft | 413 kts | 41° |
| 2026-04-22 13:58 | 50.50657 | 17.83493 | 37193 ft | 414 kts | 41° |
| 2026-04-22 13:58 | 50.55006 | 17.89388 | 37191 ft | 412 kts | 41° |
| 2026-04-22 13:59 | 50.59318 | 17.95250 | 37197 ft | 413 kts | 41° |
| 2026-04-22 13:59 | 50.63662 | 18.01170 | 37188 ft | 411 kts | 42° |
| 2026-04-22 14:00 | 50.67999 | 18.07097 | 37194 ft | 412 kts | 41° |
| 2026-04-22 14:00 | 50.72295 | 18.12984 | 37199 ft | 412 kts | 41° |
| 2026-04-22 14:01 | 50.76644 | 18.18957 | 37185 ft | 410 kts | 42° |
| 2026-04-22 14:01 | 50.80971 | 18.24917 | 37195 ft | 411 kts | 42° |
| 2026-04-22 14:02 | 50.85251 | 18.30825 | 37198 ft | 411 kts | 42° |
| 2026-04-22 14:02 | 50.89574 | 18.36809 | 37190 ft | 411 kts | 42° |
| 2026-04-22 14:03 | 50.93877 | 18.42778 | 37194 ft | 411 kts | 42° |
| 2026-04-22 14:03 | 50.98161 | 18.48736 | 37192 ft | 409 kts | 42° |
| 2026-04-22 14:04 | 51.02427 | 18.54684 | 37190 ft | 409 kts | 42° |
| 2026-04-22 14:04 | 51.06719 | 18.60685 | 37185 ft | 409 kts | 42° |
| 2026-04-22 14:05 | 51.10963 | 18.66635 | 37189 ft | 409 kts | 43° |
| 2026-04-22 14:06 | 51.17315 | 18.75565 | 37167 ft | 407 kts | 43° |
| 2026-04-22 14:06 | 51.21562 | 18.81556 | 37178 ft | 408 kts | 43° |
| 2026-04-22 14:07 | 51.25805 | 18.87558 | 37168 ft | 406 kts | 43° |
| 2026-04-22 14:07 | 51.30031 | 18.93550 | 37173 ft | 407 kts | 43° |
| 2026-04-22 14:08 | 51.34243 | 18.99537 | 37179 ft | 407 kts | 43° |
| 2026-04-22 14:08 | 51.38468 | 19.05562 | 37159 ft | 406 kts | 43° |
| 2026-04-22 14:09 | 51.42669 | 19.11563 | 37171 ft | 405 kts | 43° |
| 2026-04-22 14:09 | 51.46861 | 19.17566 | 37164 ft | 405 kts | 43° |
| 2026-04-22 14:10 | 51.51065 | 19.23603 | 37156 ft | 406 kts | 43° |
| 2026-04-22 14:10 | 51.55294 | 19.29691 | 37157 ft | 405 kts | 43° |
| 2026-04-22 14:11 | 51.59489 | 19.35748 | 37155 ft | 405 kts | 43° |
| 2026-04-22 14:11 | 51.63679 | 19.41814 | 37144 ft | 404 kts | 43° |
| 2026-04-22 14:12 | 51.67852 | 19.47868 | 37154 ft | 404 kts | 43° |
| 2026-04-22 14:12 | 51.72006 | 19.53912 | 37150 ft | 403 kts | 43° |
| 2026-04-22 14:13 | 51.76152 | 19.59960 | 37156 ft | 403 kts | 43° |
| 2026-04-22 14:13 | 51.80306 | 19.66027 | 37145 ft | 403 kts | 43° |
| 2026-04-22 14:14 | 51.84655 | 19.71773 | 37148 ft | 403 kts | 40° |
| 2026-04-22 14:14 | 51.89091 | 19.77242 | 37145 ft | 403 kts | 39° |
| 2026-04-22 14:15 | 51.93522 | 19.82731 | 37139 ft | 402 kts | 39° |
| 2026-04-22 14:15 | 51.97946 | 19.88289 | 37130 ft | 402 kts | 39° |
| 2026-04-22 14:16 | 52.02345 | 19.93863 | 37144 ft | 403 kts | 40° |
| 2026-04-22 14:16 | 52.06766 | 19.99494 | 37127 ft | 401 kts | 40° |
| 2026-04-22 14:17 | 52.11141 | 20.05086 | 37131 ft | 401 kts | 40° |
| 2026-04-22 14:17 | 52.15536 | 20.10718 | 37123 ft | 400 kts | 40° |
| 2026-04-22 14:18 | 52.19883 | 20.16304 | 37126 ft | 400 kts | 40° |
| 2026-04-22 14:18 | 52.24241 | 20.21921 | 37121 ft | 399 kts | 40° |
| 2026-04-22 14:19 | 52.28576 | 20.27519 | 37125 ft | 399 kts | 40° |
| 2026-04-22 14:19 | 52.32958 | 20.33194 | 37112 ft | 399 kts | 40° |
| 2026-04-22 14:20 | 52.39463 | 20.41645 | 37107 ft | 398 kts | 40° |
| 2026-04-22 14:20 | 52.41607 | 20.44436 | 36899 ft | 393 kts | 40° |
| 2026-04-22 14:20 | 52.43735 | 20.47211 | 37260 ft | 395 kts | 40° |
| 2026-04-22 14:21 | 52.48047 | 20.52850 | 36796 ft | 394 kts | 40° |
| 2026-04-22 14:21 | 52.50194 | 20.55659 | 37034 ft | 390 kts | 40° |
| 2026-04-22 14:22 | 52.56623 | 20.64101 | 37100 ft | 398 kts | 40° |
| 2026-04-22 14:23 | 52.63137 | 20.72682 | 37092 ft | 398 kts | 41° |
| 2026-04-22 14:23 | 52.67461 | 20.78397 | 37087 ft | 397 kts | 41° |
| 2026-04-22 14:24 | 52.71742 | 20.84072 | 37080 ft | 397 kts | 41° |
| 2026-04-22 14:24 | 52.76054 | 20.89803 | 37090 ft | 397 kts | 40° |
| 2026-04-22 14:25 | 52.80345 | 20.95517 | 37084 ft | 396 kts | 41° |
| 2026-04-22 14:25 | 52.84604 | 21.01205 | 37081 ft | 396 kts | 41° |
| 2026-04-22 14:26 | 52.88878 | 21.06930 | 37074 ft | 395 kts | 41° |
| 2026-04-22 14:26 | 52.93124 | 21.12631 | 37077 ft | 395 kts | 41° |
| 2026-04-22 14:27 | 52.97410 | 21.18401 | 37065 ft | 393 kts | 41° |
| 2026-04-22 14:27 | 53.01654 | 21.24128 | 37065 ft | 392 kts | 41° |
| 2026-04-22 14:28 | 53.05882 | 21.29851 | 37067 ft | 395 kts | 41° |
| 2026-04-22 14:28 | 53.10070 | 21.35535 | 37064 ft | 393 kts | 41° |
| 2026-04-22 14:29 | 53.14349 | 21.41355 | 37055 ft | 393 kts | 41° |
| 2026-04-22 14:29 | 53.18573 | 21.47118 | 37057 ft | 393 kts | 40° |
| 2026-04-22 14:30 | 53.22785 | 21.52877 | 37051 ft | 392 kts | 41° |
| 2026-04-22 14:30 | 53.26989 | 21.58641 | 37057 ft | 392 kts | 41° |
| 2026-04-22 14:31 | 53.31195 | 21.64420 | 37055 ft | 392 kts | 41° |
| 2026-04-22 14:31 | 53.35411 | 21.70231 | 37043 ft | 391 kts | 41° |
| 2026-04-22 14:32 | 53.39585 | 21.75998 | 37053 ft | 390 kts | 41° |
| 2026-04-22 14:32 | 53.43757 | 21.81779 | 37045 ft | 390 kts | 41° |
| 2026-04-22 14:33 | 53.47919 | 21.87563 | 37057 ft | 390 kts | 41° |
| 2026-04-22 14:33 | 53.52086 | 21.93368 | 37037 ft | 391 kts | 41° |
| 2026-04-22 14:34 | 53.56268 | 21.99207 | 37035 ft | 392 kts | 41° |
| 2026-04-22 14:34 | 53.60473 | 22.05095 | 37041 ft | 391 kts | 41° |
| 2026-04-22 14:35 | 53.64627 | 22.10927 | 37035 ft | 389 kts | 41° |
| 2026-04-22 14:35 | 53.68789 | 22.16784 | 37030 ft | 390 kts | 41° |
| 2026-04-22 14:36 | 53.72951 | 22.22659 | 37030 ft | 389 kts | 41° |
| 2026-04-22 14:36 | 53.77072 | 22.28489 | 37024 ft | 388 kts | 41° |
| 2026-04-22 14:37 | 53.81197 | 22.34344 | 37021 ft | 388 kts | 41° |
| 2026-04-22 14:37 | 53.85322 | 22.40214 | 37024 ft | 388 kts | 41° |
| 2026-04-22 14:38 | 53.89426 | 22.46068 | 37023 ft | 387 kts | 41° |
| 2026-04-22 14:38 | 53.93550 | 22.51967 | 37016 ft | 386 kts | 41° |
| 2026-04-22 14:39 | 53.97664 | 22.57866 | 37022 ft | 386 kts | 41° |
| 2026-04-22 14:39 | 54.01724 | 22.63707 | 37013 ft | 384 kts | 41° |
| 2026-04-22 14:40 | 54.07832 | 22.72517 | 37009 ft | 385 kts | 41° |
| 2026-04-22 14:40 | 54.11918 | 22.78430 | 37005 ft | 384 kts | 41° |
| 2026-04-22 14:41 | 54.16031 | 22.84400 | 37006 ft | 385 kts | 41° |
| 2026-04-22 14:41 | 54.20092 | 22.90308 | 37003 ft | 383 kts | 41° |
| 2026-04-22 14:42 | 54.24129 | 22.96202 | 37002 ft | 383 kts | 41° |
| 2026-04-22 14:42 | 54.28220 | 23.02078 | 36999 ft | 384 kts | 39° |
| 2026-04-22 14:43 | 54.32833 | 23.06706 | 37000 ft | 388 kts | 24° |
| 2026-04-22 14:43 | 54.37978 | 23.09529 | 36995 ft | 391 kts | 19° |
| 2026-04-22 14:44 | 54.43227 | 23.11886 | 36991 ft | 391 kts | 18° |
| 2026-04-22 14:44 | 54.48495 | 23.14245 | 36990 ft | 389 kts | 19° |
| 2026-04-22 14:45 | 54.53719 | 23.16643 | 36988 ft | 390 kts | 19° |
| 2026-04-22 14:45 | 54.58954 | 23.19087 | 36989 ft | 390 kts | 19° |
| 2026-04-22 14:46 | 54.64172 | 23.21542 | 36990 ft | 388 kts | 19° |
| 2026-04-22 14:46 | 54.69384 | 23.24000 | 36981 ft | 388 kts | 19° |
| 2026-04-22 14:47 | 54.74580 | 23.26462 | 36977 ft | 388 kts | 19° |
| 2026-04-22 14:47 | 54.79807 | 23.28944 | 36979 ft | 388 kts | 19° |
| 2026-04-22 14:48 | 54.85004 | 23.31419 | 36976 ft | 390 kts | 18° |
| 2026-04-22 14:48 | 54.90250 | 23.33922 | 36971 ft | 388 kts | 19° |
| 2026-04-22 14:49 | 54.95463 | 23.36417 | 36967 ft | 388 kts | 19° |
| 2026-04-22 14:49 | 55.00682 | 23.38919 | 36972 ft | 388 kts | 19° |
| 2026-04-22 14:50 | 55.05893 | 23.41425 | 36959 ft | 387 kts | 19° |
| 2026-04-22 14:50 | 55.11077 | 23.43927 | 36955 ft | 387 kts | 19° |
| 2026-04-22 14:51 | 55.16280 | 23.46443 | 36957 ft | 386 kts | 18° |
| 2026-04-22 14:51 | 55.21462 | 23.48956 | 36958 ft | 386 kts | 18° |
| 2026-04-22 14:52 | 55.26649 | 23.51479 | 36958 ft | 385 kts | 19° |
| 2026-04-22 14:52 | 55.31818 | 23.54001 | 36953 ft | 384 kts | 18° |
| 2026-04-22 14:53 | 55.36966 | 23.56520 | 36952 ft | 384 kts | 18° |
| 2026-04-22 14:53 | 55.42135 | 23.59054 | 36948 ft | 384 kts | 18° |
| 2026-04-22 14:54 | 55.47269 | 23.61577 | 36939 ft | 382 kts | 18° |
| 2026-04-22 14:54 | 55.52412 | 23.64113 | 36944 ft | 383 kts | 18° |
| 2026-04-22 14:55 | 55.57497 | 23.66626 | 36941 ft | 382 kts | 19° |
| 2026-04-22 14:55 | 55.62638 | 23.69176 | 36929 ft | 381 kts | 19° |
| 2026-04-22 14:56 | 55.67721 | 23.71702 | 36920 ft | 380 kts | 19° |
| 2026-04-22 14:56 | 55.72821 | 23.74243 | 36923 ft | 381 kts | 18° |
| 2026-04-22 14:57 | 55.77890 | 23.76777 | 36949 ft | 381 kts | 18° |
| 2026-04-22 14:57 | 55.80419 | 23.78043 | 37188 ft | 380 kts | 18° |
| 2026-04-22 14:57 | 55.82977 | 23.79323 | 37506 ft | 378 kts | 18° |
| 2026-04-22 14:58 | 55.85490 | 23.80584 | 37721 ft | 377 kts | 18° |
| 2026-04-22 14:58 | 55.88017 | 23.81855 | 37883 ft | 378 kts | 18° |
| 2026-04-22 14:58 | 55.90528 | 23.83121 | 38072 ft | 377 kts | 18° |
| 2026-04-22 14:58 | 55.93061 | 23.84399 | 38225 ft | 378 kts | 18° |
| 2026-04-22 14:59 | 55.95593 | 23.85677 | 38339 ft | 379 kts | 18° |
| 2026-04-22 14:59 | 55.98130 | 23.86960 | 38510 ft | 378 kts | 18° |
| 2026-04-22 14:59 | 56.00636 | 23.88228 | 38701 ft | 377 kts | 18° |
| 2026-04-22 14:59 | 56.03161 | 23.89507 | 38862 ft | 377 kts | 18° |
| 2026-04-22 15:00 | 56.08195 | 23.92064 | 38907 ft | 377 kts | 18° |
| 2026-04-22 15:00 | 56.13202 | 23.94614 | 38910 ft | 375 kts | 18° |
| 2026-04-22 15:01 | 56.18222 | 23.97178 | 38904 ft | 375 kts | 18° |
| 2026-04-22 15:01 | 56.23213 | 23.99733 | 38910 ft | 375 kts | 18° |
| 2026-04-22 15:02 | 56.28212 | 24.02302 | 38911 ft | 375 kts | 18° |
| 2026-04-22 15:02 | 56.33243 | 24.04917 | 38918 ft | 375 kts | 18° |
| 2026-04-22 15:03 | 56.38217 | 24.07566 | 38919 ft | 375 kts | 18° |
| 2026-04-22 15:03 | 56.43230 | 24.10250 | 38929 ft | 375 kts | 18° |
| 2026-04-22 15:04 | 56.48232 | 24.12929 | 38924 ft | 375 kts | 18° |
| 2026-04-22 15:04 | 56.53252 | 24.15621 | 38924 ft | 374 kts | 18° |
| 2026-04-22 15:05 | 56.58244 | 24.18306 | 38930 ft | 374 kts | 18° |
| 2026-04-22 15:05 | 56.63217 | 24.20987 | 38925 ft | 374 kts | 18° |
| 2026-04-22 15:06 | 56.68202 | 24.23680 | 38932 ft | 374 kts | 18° |
| 2026-04-22 15:06 | 56.73180 | 24.26378 | 38919 ft | 373 kts | 18° |
| 2026-04-22 15:07 | 56.78171 | 24.29092 | 38922 ft | 373 kts | 17° |
| 2026-04-22 15:07 | 56.83118 | 24.31788 | 38923 ft | 372 kts | 18° |
| 2026-04-22 15:08 | 56.88049 | 24.34483 | 38925 ft | 372 kts | 18° |
| 2026-04-22 15:08 | 56.93032 | 24.37215 | 38920 ft | 372 kts | 17° |
| 2026-04-22 15:09 | 56.97974 | 24.39930 | 38921 ft | 373 kts | 17° |
| 2026-04-22 15:09 | 57.02972 | 24.42683 | 38918 ft | 373 kts | 17° |
| 2026-04-22 15:10 | 57.07943 | 24.45428 | 38905 ft | 371 kts | 17° |
| 2026-04-22 15:10 | 57.12898 | 24.48177 | 38904 ft | 372 kts | 17° |
| 2026-04-22 15:11 | 57.17844 | 24.50928 | 38889 ft | 373 kts | 17° |
| 2026-04-22 15:11 | 57.22834 | 24.53709 | 38894 ft | 371 kts | 17° |
| 2026-04-22 15:12 | 57.27810 | 24.56489 | 38878 ft | 371 kts | 17° |
| 2026-04-22 15:12 | 57.32746 | 24.59256 | 38874 ft | 372 kts | 17° |
| 2026-04-22 15:13 | 57.37709 | 24.62046 | 38878 ft | 372 kts | 17° |
| 2026-04-22 15:13 | 57.42617 | 24.64813 | 38872 ft | 371 kts | 17° |
| 2026-04-22 15:14 | 57.47547 | 24.67600 | 38861 ft | 371 kts | 17° |
| 2026-04-22 15:14 | 57.52501 | 24.70409 | 38851 ft | 371 kts | 17° |
| 2026-04-22 15:15 | 57.57434 | 24.73212 | 38857 ft | 372 kts | 17° |
| 2026-04-22 15:15 | 57.62399 | 24.76042 | 38853 ft | 371 kts | 17° |
| 2026-04-22 15:16 | 57.67323 | 24.78855 | 38853 ft | 370 kts | 17° |
| 2026-04-22 15:16 | 57.72258 | 24.81685 | 38847 ft | 371 kts | 17° |
| 2026-04-22 15:17 | 57.77182 | 24.84518 | 38855 ft | 371 kts | 17° |
| 2026-04-22 15:17 | 57.82137 | 24.87375 | 38851 ft | 371 kts | 16° |
| 2026-04-22 15:18 | 57.87066 | 24.90223 | 38850 ft | 370 kts | 16° |
| 2026-04-22 15:18 | 57.91972 | 24.93067 | 38825 ft | 370 kts | 16° |
| 2026-04-22 15:19 | 57.96875 | 24.95919 | 38826 ft | 369 kts | 16° |
| 2026-04-22 15:19 | 58.01786 | 24.98766 | 38813 ft | 369 kts | 15° |
| 2026-04-22 15:20 | 58.06752 | 25.01225 | 38807 ft | 370 kts | 13° |
| 2026-04-22 15:20 | 58.11736 | 25.03506 | 38805 ft | 370 kts | 13° |
| 2026-04-22 15:21 | 58.16736 | 25.05831 | 38807 ft | 368 kts | 13° |
| 2026-04-22 15:21 | 58.21710 | 25.08185 | 38793 ft | 369 kts | 13° |
| 2026-04-22 15:22 | 58.26721 | 25.10579 | 38796 ft | 370 kts | 13° |
| 2026-04-22 15:22 | 58.31740 | 25.12989 | 38798 ft | 369 kts | 13° |
| 2026-04-22 15:23 | 58.36702 | 25.15380 | 38793 ft | 368 kts | 13° |
| 2026-04-22 15:23 | 58.41662 | 25.17775 | 38789 ft | 370 kts | 13° |
| 2026-04-22 15:24 | 58.46669 | 25.20200 | 38787 ft | 371 kts | 13° |
| 2026-04-22 15:24 | 58.51616 | 25.22607 | 38787 ft | 370 kts | 13° |
| 2026-04-22 15:25 | 58.56628 | 25.25052 | 38788 ft | 369 kts | 12° |
| 2026-04-22 15:25 | 58.61594 | 25.27478 | 38769 ft | 369 kts | 12° |
| 2026-04-22 15:26 | 58.66598 | 25.29930 | 38776 ft | 372 kts | 12° |
| 2026-04-22 15:26 | 58.71614 | 25.32395 | 38766 ft | 370 kts | 12° |
| 2026-04-22 15:27 | 58.76591 | 25.34851 | 38753 ft | 369 kts | 12° |
| 2026-04-22 15:27 | 58.81552 | 25.37306 | 38744 ft | 370 kts | 12° |
| 2026-04-22 15:28 | 58.86532 | 25.39776 | 38742 ft | 371 kts | 12° |
| 2026-04-22 15:28 | 58.89068 | 25.41037 | 38530 ft | 372 kts | 12° |
| 2026-04-22 15:28 | 58.91517 | 25.42257 | 38199 ft | 367 kts | 12° |
| 2026-04-22 15:29 | 58.93984 | 25.43489 | 37720 ft | 362 kts | 12° |
| 2026-04-22 15:29 | 58.96418 | 25.44706 | 37181 ft | 359 kts | 12° |
| 2026-04-22 15:29 | 58.98803 | 25.45770 | 36715 ft | 353 kts | 9° |
| 2026-04-22 15:30 | 59.02845 | 25.46466 | 35831 ft | 352 kts | 359° |
| 2026-04-22 15:30 | 59.06094 | 25.45960 | 34994 ft | 354 kts | 355° |
| 2026-04-22 15:30 | 59.08527 | 25.45341 | 34295 ft | 356 kts | 354° |
| 2026-04-22 15:30 | 59.10971 | 25.44665 | 33522 ft | 358 kts | 353° |
| 2026-04-22 15:31 | 59.13429 | 25.43982 | 32732 ft | 360 kts | 353° |
| 2026-04-22 15:31 | 59.15902 | 25.43304 | 31948 ft | 363 kts | 354° |
| 2026-04-22 15:31 | 59.18423 | 25.42624 | 31142 ft | 365 kts | 353° |
| 2026-04-22 15:31 | 59.20929 | 25.41958 | 30323 ft | 367 kts | 353° |
| 2026-04-22 15:32 | 59.23466 | 25.41291 | 29395 ft | 370 kts | 353° |
| 2026-04-22 15:32 | 59.25993 | 25.40630 | 28436 ft | 375 kts | 353° |
| 2026-04-22 15:32 | 59.28610 | 25.39947 | 27439 ft | 378 kts | 352° |
| 2026-04-22 15:32 | 59.31171 | 25.39277 | 26715 ft | 375 kts | 352° |
| 2026-04-22 15:33 | 59.33752 | 25.38600 | 26026 ft | 372 kts | 352° |
| 2026-04-22 15:33 | 59.36305 | 25.37929 | 25329 ft | 369 kts | 352° |
| 2026-04-22 15:33 | 59.38835 | 25.37264 | 24624 ft | 367 kts | 351° |
| 2026-04-22 15:33 | 59.41349 | 25.36603 | 23919 ft | 365 kts | 351° |
| 2026-04-22 15:34 | 59.43847 | 25.35945 | 23217 ft | 363 kts | 351° |
| 2026-04-22 15:34 | 59.46316 | 25.35171 | 22478 ft | 362 kts | 348° |
| 2026-04-22 15:34 | 59.48770 | 25.34165 | 21731 ft | 361 kts | 347° |
| 2026-04-22 15:34 | 59.51214 | 25.33047 | 20985 ft | 360 kts | 346° |
| 2026-04-22 15:35 | 59.52812 | 25.32295 | 20505 ft | 358 kts | 346° |
| 2026-04-22 15:35 | 59.56030 | 25.30786 | 19536 ft | 356 kts | 346° |
| 2026-04-22 15:35 | 59.58404 | 25.29687 | 18812 ft | 354 kts | 346° |
| 2026-04-22 15:35 | 59.60796 | 25.28594 | 18095 ft | 352 kts | 346° |
| 2026-04-22 15:36 | 59.63155 | 25.27523 | 17387 ft | 350 kts | 346° |
| 2026-04-22 15:36 | 59.65504 | 25.26465 | 16684 ft | 348 kts | 346° |
| 2026-04-22 15:36 | 59.67802 | 25.25188 | 16140 ft | 339 kts | 339° |
| 2026-04-22 15:36 | 59.69877 | 25.23228 | 15497 ft | 324 kts | 332° |
| 2026-04-22 15:37 | 59.71759 | 25.20979 | 14594 ft | 319 kts | 329° |
| 2026-04-22 15:37 | 59.73624 | 25.18651 | 13557 ft | 316 kts | 329° |
| 2026-04-22 15:37 | 59.75467 | 25.16448 | 12460 ft | 316 kts | 331° |
| 2026-04-22 15:37 | 59.77371 | 25.14293 | 11337 ft | 317 kts | 332° |
| 2026-04-22 15:38 | 59.79262 | 25.12227 | 10457 ft | 310 kts | 333° |
| 2026-04-22 15:38 | 59.82822 | 25.08386 | 10236 ft | 273 kts | 333° |
| 2026-04-22 15:38 | 59.84405 | 25.06674 | 10162 ft | 253 kts | 333° |
| 2026-04-22 15:39 | 59.85963 | 25.04992 | 10097 ft | 260 kts | 333° |
| 2026-04-22 15:39 | 59.87534 | 25.03293 | 9941 ft | 255 kts | 333° |
| 2026-04-22 15:39 | 59.89061 | 25.01631 | 9754 ft | 246 kts | 333° |
| 2026-04-22 15:39 | 59.90556 | 25.00003 | 9410 ft | 243 kts | 333° |
| 2026-04-22 15:40 | 59.92018 | 24.98411 | 9053 ft | 241 kts | 334° |
| 2026-04-22 15:40 | 59.93496 | 24.96801 | 8702 ft | 239 kts | 334° |
| 2026-04-22 15:40 | 59.94943 | 24.95220 | 8359 ft | 237 kts | 334° |
| 2026-04-22 15:40 | 59.96368 | 24.93661 | 8020 ft | 235 kts | 334° |
| 2026-04-22 15:41 | 59.97809 | 24.92087 | 7681 ft | 233 kts | 334° |
| 2026-04-22 15:41 | 59.99219 | 24.90543 | 7341 ft | 231 kts | 334° |
| 2026-04-22 15:41 | 60.00616 | 24.89011 | 7012 ft | 229 kts | 334° |
| 2026-04-22 15:41 | 60.02002 | 24.87489 | 6683 ft | 226 kts | 335° |
| 2026-04-22 15:42 | 60.03377 | 24.85978 | 6362 ft | 225 kts | 335° |
| 2026-04-22 15:42 | 60.04740 | 24.84483 | 5988 ft | 225 kts | 334° |
| 2026-04-22 15:42 | 60.06105 | 24.82982 | 5649 ft | 223 kts | 334° |
| 2026-04-22 15:42 | 60.07468 | 24.81481 | 5326 ft | 222 kts | 334° |
| 2026-04-22 15:43 | 60.08806 | 24.80005 | 5009 ft | 219 kts | 334° |
| 2026-04-22 15:43 | 60.10116 | 24.78557 | 4833 ft | 211 kts | 334° |
| 2026-04-22 15:43 | 60.11381 | 24.77157 | 4622 ft | 203 kts | 334° |
| 2026-04-22 15:43 | 60.12582 | 24.75829 | 4411 ft | 196 kts | 334° |
| 2026-04-22 15:44 | 60.13765 | 24.74521 | 4224 ft | 188 kts | 333° |
| 2026-04-22 15:44 | 60.14872 | 24.73296 | 4014 ft | 180 kts | 334° |
| 2026-04-22 15:44 | 60.15950 | 24.72101 | 3777 ft | 174 kts | 334° |
| 2026-04-22 15:44 | 60.17001 | 24.70935 | 3549 ft | 169 kts | 334° |
| 2026-04-22 15:45 | 60.18014 | 24.69821 | 3344 ft | 162 kts | 336° |
| 2026-04-22 15:45 | 60.19067 | 24.69356 | 3168 ft | 154 kts | 6° |
| 2026-04-22 15:45 | 60.20060 | 24.70093 | 3024 ft | 151 kts | 17° |
| 2026-04-22 15:45 | 60.21059 | 24.70936 | 2659 ft | 161 kts | 16° |
| 2026-04-22 15:46 | 60.22081 | 24.71807 | 2463 ft | 157 kts | 17° |
| 2026-04-22 15:46 | 60.23075 | 24.72821 | 2377 ft | 166 kts | 26° |
| 2026-04-22 15:46 | 60.23945 | 24.74388 | 2282 ft | 170 kts | 38° |
| 2026-04-22 15:46 | 60.24762 | 24.76152 | 2127 ft | 174 kts | 38° |
| 2026-04-22 15:47 | 60.25588 | 24.77910 | 1882 ft | 171 kts | 38° |
| 2026-04-22 15:47 | 60.26355 | 24.79601 | 1694 ft | 154 kts | 39° |
| 2026-04-22 15:47 | 60.27061 | 24.81143 | 1438 ft | 147 kts | 37° |
| 2026-04-22 15:47 | 60.27734 | 24.82608 | 1238 ft | 141 kts | 38° |
| 2026-04-22 15:48 | 60.28399 | 24.84051 | 1070 ft | 143 kts | 37° |
| 2026-04-22 15:48 | 60.29092 | 24.85559 | 882 ft | 147 kts | 39° |
| 2026-04-22 15:48 | 60.29788 | 24.87085 | 679 ft | 149 kts | 39° |
| 2026-04-22 15:48 | 60.30490 | 24.88635 | 452 ft | 150 kts | 40° |
| 2026-04-22 15:49 | 60.31204 | 24.90187 | 250 ft | 150 kts | 40° |
| 2026-04-22 15:49 | 60.31873 | 24.91645 | 188 ft | 121 kts | 46° |
| 2026-04-22 15:49 | 60.32342 | 24.92674 | 188 ft | 76 kts | 49° |
| 2026-04-22 15:49 | 60.32634 | 24.93327 | 188 ft | 53 kts | 47° |
| 2026-04-22 15:50 | 60.32843 | 24.93789 | 188 ft | 37 kts | 47° |
| 2026-04-22 15:50 | 60.33013 | 24.94163 | 188 ft | 31 kts | 47° |
| 2026-04-22 15:50 | 60.33118 | 24.94473 | 188 ft | 23 kts | 84° |
| 2026-04-22 15:50 | 60.33114 | 24.94759 | 188 ft | 16 kts | 93° |
| 2026-04-22 15:51 | 60.33109 | 24.94975 | 188 ft | 14 kts | 93° |
| 2026-04-22 15:51 | 60.33122 | 24.95190 | 188 ft | 18 kts | 62° |
| 2026-04-22 15:51 | 60.33202 | 24.95398 | 188 ft | 17 kts | 67° |
| 2026-04-22 15:51 | 60.33160 | 24.95603 | 188 ft | 16 kts | 137° |
| 2026-04-22 15:52 | 60.33071 | 24.95763 | 188 ft | 17 kts | 143° |
| 2026-04-22 15:52 | 60.32971 | 24.95885 | 188 ft | 16 kts | 150° |
| 2026-04-22 15:52 | 60.32858 | 24.96017 | 188 ft | 23 kts | 150° |
| 2026-04-22 15:52 | 60.32715 | 24.96184 | 188 ft | 23 kts | 150° |
| 2026-04-22 15:53 | 60.32583 | 24.96338 | 188 ft | 18 kts | 149° |
| 2026-04-22 15:53 | 60.32478 | 24.96464 | 188 ft | 17 kts | 150° |
| 2026-04-22 15:53 | 60.32372 | 24.96584 | 188 ft | 18 kts | 151° |
| 2026-04-22 15:53 | 60.32261 | 24.96713 | 188 ft | 18 kts | 150° |
| 2026-04-22 15:54 | 60.32139 | 24.96855 | 188 ft | 20 kts | 150° |
| 2026-04-22 15:54 | 60.32017 | 24.96995 | 188 ft | 19 kts | 153° |
| 2026-04-22 15:54 | 60.31914 | 24.97100 | 188 ft | 7 kts | 155° |
| 2026-04-22 15:54 | 60.31885 | 24.97078 | 188 ft | 3 kts | 239° |
| 2026-04-22 15:55 | 60.31874 | 24.97040 | 188 ft | 2 kts | 242° |
| 2026-04-22 15:55 | 60.31868 | 24.97016 | 188 ft | 2 kts | 243° |
| 2026-04-22 15:55 | 60.31865 | 24.97005 | 188 ft | 0 kts | 243° |